createdAt,value
2018-03-18T11:41:37.298Z,49.70
2018-03-18T11:44:04.062Z,49.71
2018-03-18T11:46:31.485Z,49.97
2018-03-18T11:49:24.188Z,50.03
2018-03-18T11:51:50.797Z,48.95
2018-03-18T11:54:18.217Z,49.52
2018-03-18T11:56:44.923Z,49.09
2018-03-18T11:59:12.616Z,49.24
2018-03-18T12:01:52.155Z,48.66
2018-03-18T12:04:19.842Z,48.67
2018-03-18T12:06:46.630Z,47.69
2018-03-18T12:09:13.363Z,47.22
2018-03-18T12:11:40.094Z,46.42
2018-03-18T12:14:06.842Z,46.25
2018-03-18T12:16:33.481Z,45.89
2018-03-18T12:19:00.891Z,46.05
2018-03-18T12:21:27.681Z,45.56
2018-03-18T12:23:54.437Z,45.80
2018-03-18T12:26:21.395Z,45.55
2018-03-18T12:28:48.041Z,45.79
2018-03-18T12:31:15.711Z,46.02
2018-03-18T12:33:42.615Z,46.29
2018-03-18T12:36:09.604Z,46.44
2018-03-18T12:38:37.474Z,46.53
2018-03-18T12:41:05.943Z,46.64
2018-03-18T12:43:33.117Z,46.93
2018-03-18T12:46:01.143Z,46.78
2018-03-18T12:48:29.169Z,46.71
2018-03-18T12:50:58.069Z,46.30
2018-03-18T12:53:27.147Z,46.54
2018-03-18T12:55:55.203Z,46.57
2018-03-18T12:58:23.012Z,46.14
2018-03-18T13:00:51.066Z,46.41
2018-03-18T13:03:19.174Z,46.38
2018-03-18T13:05:47.298Z,46.55
2018-03-18T13:08:15.482Z,46.71
2018-03-18T13:10:44.417Z,46.04
2018-03-18T13:13:13.364Z,46.21
2018-03-18T13:15:41.702Z,46.20
2018-03-18T13:18:10.010Z,45.86
2018-03-18T13:20:38.417Z,45.78
2018-03-18T13:23:06.684Z,45.64
2018-03-18T13:25:35.196Z,45.16
2018-03-18T13:28:03.397Z,45.53
2018-03-18T13:30:31.438Z,45.40
2018-03-18T13:32:58.162Z,45.29
2018-03-18T13:35:25.875Z,45.65
2018-03-18T13:37:54.328Z,45.32
2018-03-18T13:40:23.250Z,45.42
2018-03-18T13:42:51.363Z,45.10
2018-03-18T13:45:19.618Z,45.25
2018-03-18T13:47:48.665Z,45.58
2018-03-18T13:50:17.196Z,45.32
2018-03-18T13:52:45.654Z,44.94
2018-03-18T13:55:13.864Z,44.64
2018-03-18T13:57:42.564Z,44.19
2018-03-18T14:00:10.356Z,44.10
2018-03-18T14:02:37.986Z,44.47
2018-03-18T14:05:05.983Z,44.54
2018-03-18T14:07:35.057Z,44.14
2018-03-18T14:10:10.006Z,44.17
2018-03-18T14:12:38.325Z,43.94
2018-03-18T14:15:06.207Z,43.36
2018-03-18T14:17:34.576Z,43.89
2018-03-18T14:20:02.532Z,44.31
2018-03-18T14:22:30.310Z,44.66
2018-03-18T14:24:58.513Z,44.77
2018-03-18T14:27:26.615Z,45.57
2018-03-18T14:29:54.662Z,44.45
2018-03-18T14:32:23.233Z,45.53
2018-03-18T14:34:51.237Z,45.24
2018-03-18T14:37:19.424Z,44.98
2018-03-18T14:39:47.587Z,45.78
2018-03-18T14:42:15.626Z,45.42
2018-03-18T14:44:43.787Z,45.58
2018-03-18T14:47:12.539Z,45.96
2018-03-18T14:49:40.687Z,45.32
2018-03-18T14:52:08.857Z,45.79
2018-03-18T14:54:37.035Z,45.85
2018-03-18T14:57:04.832Z,46.04
2018-03-18T14:59:50.254Z,46.36
2018-03-18T15:02:20.247Z,45.77
2018-03-18T15:04:49.215Z,45.47
2018-03-18T15:07:17.451Z,45.59
2018-03-18T15:09:46.417Z,46.07
2018-03-18T15:12:14.557Z,46.64
2018-03-18T15:15:15.001Z,46.75
2018-03-18T15:17:43.776Z,46.91
2018-03-18T15:20:11.957Z,46.93
2018-03-18T15:22:39.429Z,46.79
2018-03-18T15:25:06.607Z,47.02
2018-03-18T15:27:34.216Z,46.43
2018-03-18T15:30:01.427Z,46.71
2018-03-18T15:32:29.688Z,46.26
2018-03-18T15:34:57.977Z,46.93
2018-03-18T15:37:25.255Z,45.98
2018-03-18T15:39:54.934Z,46.46
2018-03-18T15:42:23.576Z,45.45
2018-03-18T15:44:51.766Z,46.20
2018-03-18T15:47:18.599Z,46.72
2018-03-18T15:49:47.973Z,45.56
2018-03-18T15:52:14.798Z,45.75
2018-03-18T15:54:41.959Z,46.29
2018-03-18T15:57:09.236Z,45.65
2018-03-18T15:59:36.413Z,45.98
2018-03-18T16:02:03.445Z,45.94
2018-03-18T16:04:30.945Z,45.81
2018-03-18T16:06:58.950Z,46.21
2018-03-18T16:09:26.109Z,45.88
2018-03-18T16:11:52.979Z,46.42
2018-03-18T16:14:20.781Z,45.93
2018-03-18T16:16:49.786Z,45.61
2018-03-18T16:19:17.855Z,45.96
2018-03-18T16:21:46.689Z,45.51
2018-03-18T16:24:14.398Z,45.61
2018-03-18T16:26:42.728Z,45.17
2018-03-18T16:29:29.194Z,44.91
2018-03-18T16:31:55.862Z,45.26
2018-03-18T16:34:23.149Z,45.48
2018-03-18T16:36:49.824Z,45.28
2018-03-18T16:39:16.475Z,45.21
2018-03-18T16:42:08.033Z,44.99
2018-03-18T16:44:35.415Z,44.99
2018-03-18T16:47:02.248Z,44.85
2018-03-18T16:49:28.892Z,44.03
2018-03-18T16:51:55.487Z,44.85
2018-03-18T16:54:22.459Z,44.49
2018-03-18T16:56:49.111Z,44.25
2018-03-18T16:59:15.728Z,44.31
2018-03-18T17:01:42.388Z,44.98
2018-03-18T17:04:09.915Z,45.63
2018-03-18T17:06:37.888Z,46.00
2018-03-18T17:09:05.351Z,44.71
2018-03-18T17:11:33.158Z,44.64
2018-03-18T17:14:00.054Z,44.38
2018-03-18T17:16:27.537Z,44.38
2018-03-18T17:18:54.756Z,43.56
2018-03-18T17:21:22.857Z,44.04
2018-03-18T17:23:51.638Z,43.75
2018-03-18T17:26:19.989Z,44.30
2018-03-18T17:28:47.795Z,44.87
2018-03-18T17:31:15.939Z,43.87
2018-03-18T17:33:44.416Z,44.45
2018-03-18T17:36:12.475Z,44.35
2018-03-18T17:38:41.317Z,43.94
2018-03-18T17:41:29.033Z,44.78
2018-03-18T17:43:56.804Z,44.80
2018-03-18T17:46:42.365Z,44.76
2018-03-18T17:49:28.130Z,44.42
2018-03-18T17:52:14.762Z,44.86
2018-03-18T17:55:00.373Z,45.11
2018-03-18T17:57:40.678Z,44.69
